createdAt,value
2019-04-21T00:01:59.574Z,101854.88
2019-04-21T00:04:48.332Z,101860.20
2019-04-21T00:07:26.458Z,101856.92
2019-04-21T00:10:09.710Z,101860.64
2019-04-21T00:15:04.738Z,101851.34
2019-04-21T00:17:28.710Z,101863.95
2019-04-21T00:20:15.755Z,101864.55
2019-04-21T00:22:52.378Z,101856.71
2019-04-21T00:25:30.921Z,101854.48
2019-04-21T00:28:09.727Z,101851.81
2019-04-21T00:30:44.215Z,101845.50
2019-04-21T00:33:09.166Z,101847.45
2019-04-21T00:35:45.106Z,101842.27
2019-04-21T00:38:35.515Z,101837.50
2019-04-21T00:41:13.249Z,101835.64
2019-04-21T00:43:41.349Z,101837.98
2019-04-21T00:46:13.560Z,101829.95
2019-04-21T00:48:57.437Z,101826.25
2019-04-21T00:51:42.151Z,101830.56
2019-04-21T00:54:16.970Z,101832.77
2019-04-21T00:56:52.637Z,101835.48
2019-04-21T00:59:28.199Z,101825.13
2019-04-21T01:02:00.088Z,101819.16
2019-04-21T01:04:39.506Z,101811.19
2019-04-21T01:07:13.278Z,101812.65
2019-04-21T01:09:43.954Z,101809.19
2019-04-21T01:12:31.913Z,101807.09
2019-04-21T01:15:04.724Z,101809.52
2019-04-21T01:17:44.816Z,101809.70
2019-04-21T01:20:09.652Z,101812.56
2019-04-21T01:22:29.515Z,101812.14
2019-04-21T01:25:11.898Z,101807.58
2019-04-21T01:27:54.098Z,101810.40
2019-04-21T01:30:34.739Z,101804.92
2019-04-21T01:33:16.950Z,101805.99
2019-04-21T01:35:48.433Z,101808.95
2019-04-21T01:38:28.842Z,101801.80
2019-04-21T01:41:08.363Z,101796.06
2019-04-21T01:43:33.317Z,101801.69
2019-04-21T01:46:10.934Z,101800.41
2019-04-21T01:48:43.699Z,101794.55
2019-04-21T01:51:22.484Z,101791.12
2019-04-21T01:54:22.245Z,101787.48
2019-04-21T01:57:02.752Z,101788.50
2019-04-21T01:59:39.587Z,101789.14
2019-04-21T02:02:19.306Z,101786.25
2019-04-21T02:04:57.604Z,101783.28
2019-04-21T02:07:26.887Z,101777.38
2019-04-21T02:10:05.137Z,101781.71
2019-04-21T02:12:48.923Z,101776.92
2019-04-21T02:15:38.002Z,101774.38
2019-04-21T02:17:54.106Z,101774.66
2019-04-21T02:20:21.793Z,101775.53
2019-04-21T02:23:22.399Z,101774.24
2019-04-21T02:25:44.700Z,101771.38
2019-04-21T02:28:22.437Z,101768.69
2019-04-21T02:41:31.176Z,101760.23
2019-04-21T02:47:19.488Z,101756.60
2019-04-21T02:49:32.698Z,101751.33
2019-04-21T02:57:08.581Z,101739.95
2019-04-21T03:00:10.148Z,101746.09
2019-04-21T03:06:10.495Z,101733.38
2019-04-21T03:11:17.620Z,101729.30
2019-04-21T03:14:12.490Z,101729.55
2019-04-21T03:16:32.977Z,101726.26
2019-04-21T03:19:17.579Z,101727.25
2019-04-21T03:22:39.379Z,101725.69
2019-04-21T03:25:21.433Z,101727.45
2019-04-21T03:27:51.231Z,101728.02
2019-04-21T03:30:42.610Z,101723.33
2019-04-21T03:40:37.266Z,101724.50
2019-04-21T03:43:12.657Z,101727.97
2019-04-21T03:45:49.218Z,101724.61
2019-04-21T03:48:27.038Z,101720.34
2019-04-21T03:50:56.659Z,101718.20
2019-04-21T03:53:44.477Z,101719.60
2019-04-21T03:58:55.867Z,101722.23
2019-04-21T04:01:57.767Z,101721.39
2019-04-21T04:07:49.799Z,101716.03
2019-04-21T04:10:22.402Z,101710.55
2019-04-21T04:12:52.540Z,101710.53
2019-04-21T04:15:45.374Z,101714.00
2019-04-21T04:18:04.616Z,101712.22
2019-04-21T04:25:51.585Z,101709.00
2019-04-21T04:31:21.475Z,101708.58
2019-04-21T04:36:30.164Z,101706.05
2019-04-21T04:39:25.833Z,101709.85
2019-04-21T04:47:22.744Z,101709.46
2019-04-21T04:52:36.215Z,101713.41
2019-04-21T04:55:26.161Z,101702.30
2019-04-21T05:02:56.397Z,101698.16
2019-04-21T05:06:11.912Z,101696.48
2019-04-21T05:08:42.381Z,101692.22
2019-04-21T05:11:20.877Z,101689.73
2019-04-21T05:13:50.896Z,101691.16
2019-04-21T05:16:36.251Z,101691.48
2019-04-21T05:24:01.319Z,101681.41
2019-04-21T05:26:34.506Z,101684.83
2019-04-21T05:29:10.594Z,101682.95
2019-04-21T05:32:13.361Z,101683.52
2019-04-21T05:34:37.399Z,101681.52
2019-04-21T05:37:37.152Z,101682.16
2019-04-21T05:40:15.845Z,101683.48
2019-04-21T05:42:55.539Z,101681.29
2019-04-21T05:45:37.309Z,101674.16
2019-04-21T05:48:33.626Z,101673.94
2019-04-21T05:51:02.046Z,101669.88
2019-04-21T05:53:55.662Z,101678.74
2019-04-21T05:56:17.448Z,101663.75
2019-04-21T05:58:48.030Z,101673.13
2019-04-21T06:01:33.443Z,101670.36
2019-04-21T06:04:05.413Z,101669.72
2019-04-21T06:06:49.791Z,101663.80
2019-04-21T06:09:18.987Z,101665.34
2019-04-21T06:11:55.527Z,101665.62
2019-04-21T06:14:30.524Z,101674.69
2019-04-21T06:17:17.522Z,101664.63
2019-04-21T06:19:43.258Z,101662.44
2019-04-21T06:22:13.873Z,101667.13
2019-04-21T06:30:24.006Z,101659.52
2019-04-21T06:32:47.152Z,101656.00
2019-04-21T06:35:56.510Z,101656.04
2019-04-21T06:38:19.269Z,101657.22
2019-04-21T06:40:50.084Z,101654.66
2019-04-21T06:43:37.718Z,101654.38
2019-04-21T06:46:02.228Z,101657.42
2019-04-21T06:48:44.452Z,101654.70
2019-04-21T06:51:15.115Z,101659.69
2019-04-21T06:53:59.373Z,101649.59
2019-04-21T06:56:38.010Z,101648.62
2019-04-21T06:59:06.725Z,101647.24
2019-04-21T07:01:51.463Z,101640.02
2019-04-21T07:04:25.280Z,101645.92
2019-04-21T07:06:54.216Z,101647.31
2019-04-21T07:09:31.867Z,101642.78
2019-04-21T07:12:06.196Z,101642.48
2019-04-21T07:14:50.046Z,101648.70
2019-04-21T07:17:26.938Z,101642.44
2019-04-21T07:22:36.859Z,101645.07
2019-04-21T07:25:18.230Z,101643.10
2019-04-21T07:27:49.052Z,101640.77
2019-04-21T07:30:26.673Z,101640.23
2019-04-21T07:33:09.249Z,101636.39
2019-04-21T07:35:31.816Z,101633.54
2019-04-21T07:38:17.992Z,101634.84
2019-04-21T07:40:39.982Z,101639.72
2019-04-21T07:43:13.581Z,101634.13
2019-04-21T07:45:49.853Z,101629.00
2019-04-21T07:48:36.142Z,101634.15
2019-04-21T07:51:33.973Z,101631.19
2019-04-21T07:54:10.401Z,101627.38
2019-04-21T07:56:28.757Z,101631.02
2019-04-21T07:59:21.247Z,101628.55
2019-04-21T08:01:55.151Z,101624.32
2019-04-21T08:04:49.566Z,101622.13
2019-04-21T08:07:09.942Z,101626.31
2019-04-21T08:09:42.657Z,101624.09
2019-04-21T08:12:08.108Z,101618.62
2019-04-21T08:14:50.711Z,101621.52
2019-04-21T08:17:30.206Z,101617.06
2019-04-21T08:20:00.571Z,101617.08
2019-04-21T08:22:46.334Z,101611.57
2019-04-21T08:28:26.430Z,101610.64
2019-04-21T08:30:56.801Z,101614.03
2019-04-21T08:33:17.538Z,101610.33
2019-04-21T08:38:31.515Z,101607.95
2019-04-21T08:41:01.563Z,101599.12
2019-04-21T08:46:16.949Z,101597.22
2019-04-21T08:48:52.574Z,101594.95
2019-04-21T08:51:44.756Z,101589.42
2019-04-21T08:54:05.514Z,101584.45
2019-04-21T08:56:54.474Z,101592.49
2019-04-21T08:59:53.371Z,101579.71
2019-04-21T09:02:34.000Z,101576.80
2019-04-21T09:05:09.026Z,101569.75
2019-04-21T09:10:14.321Z,101571.14
2019-04-21T09:12:46.614Z,101573.47
2019-04-21T09:15:29.357Z,101563.16
2019-04-21T09:18:00.663Z,101572.34
2019-04-21T09:23:18.089Z,101566.36
2019-04-21T09:25:52.258Z,101559.27
2019-04-21T09:28:22.670Z,101555.20
2019-04-21T09:30:52.173Z,101556.63
2019-04-21T09:33:28.050Z,101540.64
2019-04-21T09:36:02.665Z,101539.78
2019-04-21T09:38:39.838Z,101539.57
2019-04-21T09:41:15.477Z,101534.20
2019-04-21T09:43:52.142Z,101524.80
2019-04-21T09:46:25.429Z,101522.94
2019-04-21T09:49:05.753Z,101522.82
2019-04-21T09:51:37.220Z,101518.55
2019-04-21T09:54:17.458Z,101516.16
2019-04-21T09:56:54.013Z,101517.63
2019-04-21T09:59:28.450Z,101518.52
2019-04-21T10:02:08.458Z,101513.66
2019-04-21T10:04:34.102Z,101514.80
2019-04-21T10:07:23.617Z,101508.00
2019-04-21T10:09:49.908Z,101510.30
2019-04-21T10:12:23.792Z,101504.42
2019-04-21T10:14:57.537Z,101501.67
2019-04-21T10:17:56.230Z,101491.56
2019-04-21T10:20:30.891Z,101487.16
2019-04-21T10:23:07.213Z,101487.80
2019-04-21T10:25:43.209Z,101492.67
2019-04-21T10:28:19.025Z,101486.69
2019-04-21T10:30:54.095Z,101481.92
2019-04-21T10:33:30.767Z,101475.91
2019-04-21T10:36:06.861Z,101481.20
2019-04-21T10:38:47.745Z,101466.50
2019-04-21T10:41:17.720Z,101468.38
2019-04-21T10:43:51.527Z,101455.13
2019-04-21T10:46:26.602Z,101460.08
2019-04-21T10:49:01.096Z,101447.62
2019-04-21T10:51:35.276Z,101448.92
2019-04-21T10:54:09.052Z,101452.36
2019-04-21T10:56:44.465Z,101439.90
2019-04-21T10:59:20.448Z,101435.73
2019-04-21T11:01:56.839Z,101429.33
2019-04-21T11:04:36.443Z,101435.95
2019-04-21T11:07:31.887Z,101419.72
2019-04-21T11:10:04.461Z,101416.59
2019-04-21T11:12:39.741Z,101414.99
2019-04-21T11:15:14.876Z,101415.22
2019-04-21T11:17:49.214Z,101417.81
2019-04-21T11:20:24.780Z,101412.56
2019-04-21T11:23:01.693Z,101398.12
2019-04-21T11:25:37.849Z,101390.86
2019-04-21T11:28:14.280Z,101395.80
2019-04-21T11:30:50.972Z,101395.56
2019-04-21T11:33:24.981Z,101380.38
2019-04-21T11:36:01.357Z,101387.03
2019-04-21T11:38:59.193Z,101380.36
2019-04-21T11:41:19.132Z,101383.02
2019-04-21T11:43:54.927Z,101377.45
2019-04-21T11:46:29.093Z,101386.96
2019-04-21T11:49:06.331Z,101372.28
2019-04-21T11:51:40.786Z,101367.91
2019-04-21T11:54:15.064Z,101379.23
2019-04-21T11:56:49.079Z,101368.56
2019-04-21T11:59:23.734Z,101366.18
2019-04-21T12:01:59.423Z,101362.47
2019-04-21T12:04:33.732Z,101354.34
2019-04-21T12:07:09.175Z,101354.46
2019-04-21T12:09:45.772Z,101353.08
2019-04-21T12:12:19.377Z,101352.38
2019-04-21T12:14:55.610Z,101344.47
2019-04-21T12:17:30.036Z,101346.27
2019-04-21T12:20:03.657Z,101337.02
2019-04-21T12:22:37.484Z,101334.12
2019-04-21T12:25:13.512Z,101326.40
2019-04-21T12:27:47.864Z,101326.53
2019-04-21T12:30:24.078Z,101325.23
2019-04-21T12:33:04.348Z,101323.24
2019-04-21T12:35:39.488Z,101315.72
2019-04-21T12:38:17.461Z,101309.00
2019-04-21T12:40:51.001Z,101299.13
2019-04-21T12:43:26.578Z,101309.39
2019-04-21T12:46:00.385Z,101304.63
2019-04-21T12:48:34.011Z,101299.61
2019-04-21T12:51:07.925Z,101292.39
2019-04-21T12:53:41.738Z,101289.59
2019-04-21T12:56:17.738Z,101285.95
2019-04-21T12:58:51.576Z,101281.00
2019-04-21T13:01:25.259Z,101266.63
2019-04-21T13:04:00.225Z,101275.94
2019-04-21T13:06:33.942Z,101268.30
2019-04-21T13:09:12.713Z,101262.77
2019-04-21T13:11:44.647Z,101261.28
2019-04-21T13:14:18.307Z,101253.76
2019-04-21T13:16:53.247Z,101245.55
2019-04-21T13:19:29.278Z,101241.30
2019-04-21T13:22:05.743Z,101241.41
2019-04-21T13:24:42.117Z,101234.68
2019-04-21T13:27:20.536Z,101231.76
2019-04-21T13:29:56.532Z,101223.23
2019-04-21T13:32:31.176Z,101217.13
2019-04-21T13:35:05.402Z,101228.33
2019-04-21T13:37:41.514Z,101220.25
2019-04-21T13:40:57.007Z,101223.63
2019-04-21T13:43:20.951Z,101225.23
2019-04-21T13:45:57.732Z,101219.14
2019-04-21T13:48:32.659Z,101210.08
2019-04-21T13:51:07.140Z,101203.63
2019-04-21T13:53:41.867Z,101198.78
2019-04-21T13:56:16.402Z,101197.62
2019-04-21T13:58:52.629Z,101191.22
2019-04-21T14:01:27.649Z,101184.62
2019-04-21T14:04:05.186Z,101184.33
2019-04-21T14:06:42.155Z,101178.60
2019-04-21T14:09:17.868Z,101180.27
2019-04-21T14:11:54.090Z,101173.61
2019-04-21T14:14:28.375Z,101175.17
2019-04-21T14:17:05.116Z,101165.70
2019-04-21T14:19:37.767Z,101169.88
2019-04-21T14:22:13.922Z,101169.05
2019-04-21T14:24:48.050Z,101160.67
2019-04-21T14:27:22.199Z,101155.56
2019-04-21T14:29:55.834Z,101159.43
2019-04-21T14:32:29.948Z,101152.80
2019-04-21T14:35:04.857Z,101146.95
2019-04-21T14:37:38.657Z,101152.22
2019-04-21T14:40:20.125Z,101149.22
2019-04-21T14:42:51.989Z,101137.34
2019-04-21T14:45:48.634Z,101135.52
2019-04-21T14:48:41.577Z,101138.07
2019-04-21T14:51:47.468Z,101139.70
2019-04-21T14:54:42.630Z,101138.27
2019-04-21T14:57:21.241Z,101129.06
2019-04-21T14:59:55.197Z,101126.86
2019-04-21T15:02:29.866Z,101137.84
2019-04-21T15:05:04.089Z,101125.00
2019-04-21T15:07:39.300Z,101123.05
2019-04-21T15:10:19.063Z,101125.02
2019-04-21T15:12:50.118Z,101123.02
2019-04-21T15:15:23.787Z,101112.63
2019-04-21T15:17:57.939Z,101111.48
2019-04-21T15:20:31.568Z,101115.44
2019-04-21T15:23:06.295Z,101113.71
2019-04-21T15:25:40.068Z,101106.07
2019-04-21T15:28:15.902Z,101098.09
2019-04-21T15:30:50.443Z,101091.02
2019-04-21T15:33:26.465Z,101091.32
2019-04-21T15:36:00.822Z,101092.54
2019-04-21T15:38:35.801Z,101085.80
2019-04-21T15:41:10.875Z,101084.02
2019-04-21T15:43:46.737Z,101082.42
2019-04-21T15:46:20.589Z,101077.70
2019-04-21T15:48:55.150Z,101072.20
2019-04-21T15:51:29.650Z,101068.73
2019-04-21T15:54:04.901Z,101074.73
2019-04-21T15:57:02.772Z,101076.05
2019-04-21T16:00:04.667Z,101071.13
2019-04-21T16:02:40.545Z,101070.39
2019-04-21T16:05:16.910Z,101069.12
2019-04-21T16:07:52.013Z,101060.75
2019-04-21T16:10:34.625Z,101063.03
2019-04-21T16:13:01.706Z,101061.72
2019-04-21T16:15:36.558Z,101060.69
2019-04-21T16:18:10.432Z,101059.94
2019-04-21T16:20:44.032Z,101054.05
2019-04-21T16:23:18.281Z,101060.52
2019-04-21T16:25:52.755Z,101053.48
2019-04-21T16:28:27.020Z,101053.34
2019-04-21T16:31:04.677Z,101052.03
2019-04-21T16:33:40.958Z,101042.78
2019-04-21T16:36:18.096Z,101046.26
2019-04-21T16:38:53.463Z,101040.83
2019-04-21T16:41:28.544Z,101037.79
2019-04-21T16:44:02.995Z,101038.97
2019-04-21T16:46:37.746Z,101037.51
2019-04-21T16:49:11.810Z,101036.05
2019-04-21T16:51:47.543Z,101028.88
2019-04-21T16:54:28.244Z,101025.34
2019-04-21T16:57:13.798Z,101027.55
2019-04-21T16:59:52.664Z,101021.88
2019-04-21T17:02:28.392Z,101028.53
2019-04-21T17:05:04.652Z,101019.78
2019-04-21T17:07:38.882Z,101019.22
2019-04-21T17:10:12.888Z,101017.69
2019-04-21T17:12:48.009Z,101018.09
2019-04-21T17:15:40.758Z,101014.79
2019-04-21T17:18:20.827Z,101019.21
2019-04-21T17:20:45.048Z,101017.53
2019-04-21T17:23:11.488Z,101014.36
2019-04-21T17:25:45.386Z,101017.94
2019-04-21T17:28:19.612Z,101017.77
2019-04-21T17:30:54.621Z,101012.45
2019-04-21T17:33:30.202Z,101018.63
2019-04-21T17:36:04.990Z,101019.32
2019-04-21T17:38:39.880Z,101014.84
2019-04-21T17:41:25.003Z,101013.30
2019-04-21T17:43:49.938Z,101018.62
2019-04-21T17:46:33.303Z,101018.89
2019-04-21T17:49:01.017Z,101022.34
2019-04-21T17:52:01.783Z,101013.79
2019-04-21T17:54:43.608Z,101015.41
2019-04-21T17:57:33.459Z,101012.34
2019-04-21T18:00:14.076Z,101016.45
2019-04-21T18:02:51.763Z,101015.17
2019-04-21T18:05:28.991Z,101015.40
2019-04-21T18:07:54.378Z,101021.88
2019-04-21T18:10:34.795Z,101011.27
2019-04-21T18:13:03.729Z,101016.55
2019-04-21T18:15:50.695Z,101009.18
2019-04-21T18:18:06.458Z,101008.16
2019-04-21T18:20:46.250Z,101015.33
2019-04-21T18:23:39.461Z,101011.87
2019-04-21T18:26:08.170Z,101015.34
2019-04-21T18:28:38.784Z,101009.48
2019-04-21T18:31:16.532Z,101012.21
2019-04-21T18:34:13.810Z,101010.77
2019-04-21T18:36:51.710Z,101017.70
2019-04-21T18:39:48.612Z,101017.92
2019-04-21T18:42:32.783Z,101019.79
2019-04-21T18:48:19.068Z,101017.76
2019-04-21T18:51:18.953Z,101013.66
2019-04-21T18:54:17.373Z,101016.44
2019-04-21T18:56:33.748Z,101018.23
2019-04-21T18:59:08.871Z,101020.17
2019-04-21T19:01:51.447Z,101024.41
2019-04-21T19:04:22.528Z,101019.66
2019-04-21T19:07:06.701Z,101027.63
2019-04-21T19:10:14.868Z,101021.78
2019-04-21T19:12:35.150Z,101028.80
2019-04-21T19:14:59.329Z,101031.28
2019-04-21T19:22:47.194Z,101026.11
2019-04-21T19:25:25.279Z,101020.98
2019-04-21T19:28:04.625Z,101022.12
2019-04-21T19:30:49.341Z,101021.70
2019-04-21T19:33:22.062Z,101023.92
2019-04-21T19:35:39.342Z,101015.92
2019-04-21T19:38:16.195Z,101019.13
2019-04-21T19:41:05.332Z,101023.69
2019-04-21T19:43:49.275Z,101020.70
2019-04-21T19:46:19.335Z,101017.89
2019-04-21T19:49:05.495Z,101014.92
2019-04-21T19:51:26.416Z,101013.74
2019-04-21T19:54:00.794Z,101007.78
2019-04-21T19:56:25.854Z,101007.35
2019-04-21T19:59:01.171Z,101010.90
2019-04-21T20:01:35.194Z,101007.36
2019-04-21T20:04:10.424Z,101010.37
2019-04-21T20:07:00.666Z,101011.30
2019-04-21T20:09:39.606Z,101010.09
2019-04-21T20:12:09.339Z,101006.65
2019-04-21T20:14:55.750Z,101003.61
2019-04-21T20:17:24.411Z,101012.66
2019-04-21T20:19:45.024Z,101008.56
2019-04-21T20:22:18.943Z,101003.44
2019-04-21T20:25:00.181Z,101008.58
2019-04-21T20:27:39.036Z,101005.22
2019-04-21T20:30:29.770Z,101008.97
2019-04-21T20:33:05.821Z,101010.80
2019-04-21T20:35:45.096Z,101010.09
2019-04-21T20:38:12.529Z,101013.61
2019-04-21T20:40:45.347Z,101012.12
2019-04-21T20:43:30.704Z,101013.61
2019-04-21T20:46:06.143Z,101010.47
2019-04-21T20:48:40.109Z,101006.27
2019-04-21T20:51:18.570Z,101005.83
2019-04-21T20:53:47.803Z,101004.05
2019-04-21T20:56:19.324Z,100999.71
2019-04-21T20:58:59.791Z,101004.27
2019-04-21T21:01:39.402Z,100994.84
2019-04-21T21:04:13.796Z,100993.56
2019-04-21T21:06:54.114Z,100991.88
2019-04-21T21:09:23.089Z,100995.80
2019-04-21T21:12:18.254Z,100992.55
2019-04-21T21:14:40.760Z,100992.06
2019-04-21T21:17:36.112Z,100992.16
2019-04-21T21:19:55.797Z,100983.48
2019-04-21T21:22:22.789Z,100983.00
2019-04-21T21:25:02.990Z,100986.11
2019-04-21T21:27:38.351Z,100978.73
2019-04-21T21:30:08.320Z,100977.80
2019-04-21T21:32:52.428Z,100975.30
2019-04-21T21:35:21.878Z,100971.46
2019-04-21T21:38:06.728Z,100974.09
2019-04-21T21:40:38.188Z,100971.55
2019-04-21T21:43:01.555Z,100971.45
2019-04-21T21:45:41.507Z,100968.86
2019-04-21T21:48:26.434Z,100971.99
2019-04-21T21:50:56.639Z,100965.94
2019-04-21T21:53:26.998Z,100975.23
2019-04-21T21:56:00.727Z,100973.75
2019-04-21T21:58:41.917Z,100974.52
2019-04-21T22:01:16.703Z,100962.77
2019-04-21T22:03:59.199Z,100964.61
2019-04-21T22:06:38.691Z,100959.20
2019-04-21T22:09:01.702Z,100957.90
2019-04-21T22:11:35.887Z,100958.82
2019-04-21T22:14:17.146Z,100961.81
2019-04-21T22:17:07.682Z,100965.73
2019-04-21T22:19:41.629Z,100966.64
2019-04-21T22:22:21.051Z,100965.95
2019-04-21T22:24:49.316Z,100968.27
2019-04-21T22:27:14.902Z,100970.02
2019-04-21T22:29:53.513Z,100966.67
2019-04-21T22:32:28.633Z,100967.49
2019-04-21T22:35:04.810Z,100966.19
2019-04-21T22:37:48.772Z,100964.17
2019-04-21T22:40:23.997Z,100963.70
2019-04-21T22:42:59.458Z,100961.97
2019-04-21T22:45:25.141Z,100958.17
2019-04-21T22:48:07.501Z,100961.77
2019-04-21T22:50:38.375Z,100954.78
2019-04-21T22:53:13.815Z,100960.48
2019-04-21T22:55:49.602Z,100953.93
2019-04-21T22:58:29.339Z,100956.63
2019-04-21T23:01:01.856Z,100957.50
2019-04-21T23:03:35.767Z,100963.97
2019-04-21T23:06:17.917Z,100954.42
2019-04-21T23:08:48.114Z,100950.59
2019-04-21T23:11:23.540Z,100947.95
2019-04-21T23:14:04.008Z,100948.04
2019-04-21T23:16:38.443Z,100949.69
2019-04-21T23:19:31.164Z,100945.35
2019-04-21T23:22:04.151Z,100948.66
2019-04-21T23:24:45.545Z,100951.56
2019-04-21T23:27:15.573Z,100949.17
2019-04-21T23:29:58.867Z,100948.13
2019-04-21T23:32:23.899Z,100956.80
2019-04-21T23:34:49.161Z,100947.81
2019-04-21T23:37:27.178Z,100950.22
2019-04-21T23:40:07.573Z,100948.23
2019-04-21T23:42:41.559Z,100952.85
2019-04-21T23:45:17.691Z,100949.20
2019-04-21T23:48:05.004Z,100946.76
2019-04-21T23:50:37.838Z,100946.01
2019-04-21T23:53:01.800Z,100945.46
2019-04-21T23:55:37.088Z,100951.36
2019-04-21T23:58:16.385Z,100951.65
